Time;durP1;ratioP1;P1;durP2;ratioP2;P2;SDS_P1;SDS_P2;PMS_P1;PMS_P2;Temp;Humidity;BMP_temperature;BMP_pressure;BME280_temperature;BME280_humidity;BME280_pressure;Samples;Min_cycle;Max_cycle;Signal;HPM_P1;HPM_P2
2022/07/03 00:02:11;;;;;;;3.15;2.20;;;22.90;54.90;;;;;;5053592;28;20215;-68
2022/07/03 00:04:38;;;;;;;3.40;2.40;;;22.90;55.70;;;;;;5053583;28;20222;-68
2022/07/03 00:07:05;;;;;;;2.65;1.90;;;22.90;56.60;;;;;;5051959;28;20230;-69
2022/07/03 00:09:32;;;;;;;3.60;2.10;;;22.90;56.90;;;;;;5068837;28;20227;-67
2022/07/03 00:12:01;;;;;;;3.17;2.20;;;22.90;56.90;;;;;;5068897;28;20202;-68
2022/07/03 00:14:28;;;;;;;2.42;2.00;;;22.90;56.90;;;;;;5052200;28;20611;-68
2022/07/03 00:16:55;;;;;;;3.00;2.03;;;22.90;56.90;;;;;;5052148;28;20286;-68
2022/07/03 00:19:22;;;;;;;3.10;2.03;;;22.90;56.90;;;;;;5052101;28;20199;-68
2022/07/03 00:21:51;;;;;;;2.67;1.75;;;22.90;56.80;;;;;;5052186;28;20272;-68
2022/07/03 00:24:21;;;;;;;1.95;1.85;;;22.90;56.60;;;;;;5053267;28;20539;-68
2022/07/03 00:26:51;;;;;;;3.28;2.03;;;22.80;56.50;;;;;;5069216;28;20270;-68
2022/07/03 00:29:20;;;;;;;2.08;1.88;;;22.90;56.50;;;;;;5068452;28;20303;-68
2022/07/03 00:31:49;;;;;;;2.30;2.10;;;22.80;56.30;;;;;;5068562;28;20195;-68
2022/07/03 00:34:16;;;;;;;3.25;1.98;;;22.90;56.40;;;;;;5068791;28;20187;-68
2022/07/03 00:36:44;;;;;;;2.28;2.03;;;22.80;56.30;;;;;;5068695;28;20206;-68
2022/07/03 00:39:11;;;;;;;2.08;1.95;;;22.80;56.20;;;;;;5053342;28;20191;-68
2022/07/03 00:41:39;;;;;;;3.13;1.95;;;22.80;56.10;;;;;;5051831;28;20203;-68
2022/07/03 00:44:06;;;;;;;1.90;1.80;;;22.80;56.20;;;;;;5051679;28;20585;-68
2022/07/03 00:46:34;;;;;;;2.38;1.65;;;22.70;56.20;;;;;;5051740;28;20195;-68
2022/07/03 00:49:01;;;;;;;2.50;2.20;;;22.70;56.20;;;;;;5052454;28;20238;-68
2022/07/03 00:51:29;;;;;;;2.70;1.98;;;22.70;56.20;;;;;;5052970;28;20215;-68
2022/07/03 00:53:57;;;;;;;2.25;1.90;;;22.70;56.20;;;;;;5051663;28;20233;-68
2022/07/03 00:56:26;;;;;;;2.63;2.22;;;22.70;56.20;;;;;;5068208;28;20520;-68
2022/07/03 00:58:55;;;;;;;2.47;2.03;;;22.70;56.10;;;;;;5051506;28;20573;-68
2022/07/03 01:01:23;;;;;;;2.40;2.00;;;22.70;56.20;;;;;;5068400;28;20191;-68
2022/07/03 01:03:57;;;;;;;3.25;2.28;;;22.60;56.00;;;;;;5051584;28;20216;-68
2022/07/03 01:06:24;;;;;;;3.65;1.83;;;22.60;56.00;;;;;;5052786;28;20553;-68
2022/07/03 01:08:53;;;;;;;2.22;2.03;;;22.60;56.20;;;;;;5052840;28;20298;-68
2022/07/03 01:11:22;;;;;;;2.20;2.00;;;22.60;56.20;;;;;;5056567;28;20222;-68
2022/07/03 01:13:59;;;;;;;1.98;1.80;;;22.60;56.00;;;;;;5055272;28;20594;-68
2022/07/03 01:16:29;;;;;;;2.92;2.05;;;22.60;56.10;;;;;;5055187;28;20278;-68
2022/07/03 01:19:01;;;;;;;3.42;2.08;;;22.60;56.00;;;;;;5055072;28;20343;-68
2022/07/03 01:21:34;;;;;;;2.22;1.90;;;22.60;56.00;;;;;;5056576;28;20229;-67
2022/07/03 01:24:18;;;;;;;3.25;1.77;;;22.50;56.00;;;;;;5055085;28;20222;-68
2022/07/03 01:26:48;;;;;;;2.47;2.08;;;22.50;56.10;;;;;;5055093;28;20253;-67
2022/07/03 01:29:18;;;;;;;4.20;2.15;;;22.50;56.00;;;;;;5054859;28;20219;-68
2022/07/03 01:31:45;;;;;;;2.10;1.90;;;22.50;56.00;;;;;;5056080;28;20601;-68
2022/07/03 01:34:14;;;;;;;2.45;2.10;;;22.50;56.50;;;;;;5071505;28;20226;-68
2022/07/03 01:36:42;;;;;;;2.20;2.00;;;22.50;56.00;;;;;;5071929;28;20668;-68
2022/07/03 01:39:09;;;;;;;2.20;1.70;;;22.40;56.00;;;;;;5071588;28;20191;-68
2022/07/03 01:41:36;;;;;;;2.85;1.90;;;22.40;55.90;;;;;;5056243;28;20257;-68
2022/07/03 01:44:05;;;;;;;1.98;1.88;;;22.40;55.80;;;;;;5054635;28;20318;-66
2022/07/03 01:46:33;;;;;;;1.90;1.70;;;22.40;55.80;;;;;;5054628;28;20667;-68
2022/07/03 01:49:00;;;;;;;2.78;1.98;;;22.40;55.90;;;;;;5055771;28;20235;-68
2022/07/03 01:51:27;;;;;;;2.42;1.83;;;22.40;55.90;;;;;;5055686;28;20219;-68
2022/07/03 01:53:54;;;;;;;3.05;2.00;;;22.40;55.90;;;;;;5055819;28;20204;-68
2022/07/03 01:56:23;;;;;;;2.17;1.90;;;22.40;56.00;;;;;;5054547;28;20286;-68
2022/07/03 01:58:50;;;;;;;2.13;2.00;;;22.40;55.90;;;;;;5071267;28;20184;-68
2022/07/03 02:01:21;;;;;;;2.80;1.90;;;22.40;55.80;;;;;;5054383;28;20290;-68
2022/07/03 02:03:52;;;;;;;2.35;1.80;;;22.30;55.70;;;;;;5070886;28;20757;-68
2022/07/03 02:06:21;;;;;;;1.90;1.80;;;22.30;55.80;;;;;;5055436;28;20683;-67
2022/07/03 02:08:51;;;;;;;2.78;1.92;;;22.40;55.90;;;;;;5070961;28;20760;-68
2022/07/03 02:11:19;;;;;;;1.98;1.83;;;22.30;55.80;;;;;;5055802;28;20675;-68
2022/07/03 02:13:52;;;;;;;1.95;1.85;;;22.30;55.90;;;;;;5054102;28;20211;-66
2022/07/03 02:16:22;;;;;;;3.20;1.70;;;22.30;56.00;;;;;;5054135;28;20203;-69
2022/07/03 02:18:56;;;;;;;2.22;2.03;;;22.30;55.90;;;;;;5055356;28;20202;-68
2022/07/03 02:21:23;;;;;;;2.60;1.85;;;22.30;56.00;;;;;;5054738;28;20184;-67
2022/07/03 02:23:54;;;;;;;2.05;1.88;;;22.30;56.00;;;;;;5053904;28;20216;-68
2022/07/03 02:26:21;;;;;;;2.13;1.95;;;22.20;55.90;;;;;;5055637;28;20179;-68
2022/07/03 02:28:59;;;;;;;1.92;1.80;;;22.20;56.00;;;;;;5054035;28;20211;-68
2022/07/03 02:31:28;;;;;;;2.20;2.00;;;22.20;56.00;;;;;;5053941;28;20305;-67
2022/07/03 02:33:58;;;;;;;2.20;2.00;;;22.20;56.10;;;;;;5053803;28;20219;-68
2022/07/03 02:36:26;;;;;;;2.13;1.92;;;22.20;55.90;;;;;;5070471;28;20231;-68
2022/07/03 02:38:55;;;;;;;3.45;2.20;;;22.20;56.00;;;;;;5053793;28;20196;-67
2022/07/03 02:41:24;;;;;;;2.20;2.00;;;22.20;56.10;;;;;;5054939;28;20196;-68
2022/07/03 02:43:56;;;;;;;2.40;1.80;;;22.20;56.10;;;;;;5070795;28;20215;-68
2022/07/03 02:49:17;;;;;;;2.60;2.13;;;22.20;56.10;;;;;;5053781;28;20208;-68
2022/07/03 02:51:47;;;;;;;2.90;1.70;;;22.20;56.10;;;;;;5070432;28;20230;-67
2022/07/03 02:54:16;;;;;;;2.05;1.70;;;22.10;56.00;;;;;;5053440;28;20195;-68
2022/07/03 02:56:47;;;;;;;2.30;1.90;;;22.20;56.00;;;;;;5053450;28;20203;-68
2022/07/03 02:59:17;;;;;;;2.30;2.10;;;22.10;56.20;;;;;;5054652;28;20548;-68
2022/07/03 03:01:48;;;;;;;2.58;2.00;;;22.10;56.20;;;;;;5053205;28;20196;-67
2022/07/03 03:04:19;;;;;;;1.85;1.75;;;22.10;56.80;;;;;;5053263;28;20196;-68
2022/07/03 03:06:49;;;;;;;4.25;2.10;;;22.10;56.20;;;;;;5069871;28;20187;-67
2022/07/03 03:09:21;;;;;;;2.10;1.90;;;22.10;56.20;;;;;;5070009;28;20211;-68
2022/07/03 03:11:48;;;;;;;2.20;2.00;;;22.10;56.20;;;;;;5053224;28;20192;-68
2022/07/03 03:14:21;;;;;;;1.83;1.70;;;22.10;56.20;;;;;;5053108;28;20257;-68
2022/07/03 03:16:52;;;;;;;2.00;1.90;;;22.10;56.20;;;;;;5054673;28;20203;-68
2022/07/03 03:19:20;;;;;;;2.20;2.10;;;22.10;55.90;;;;;;5052793;28;20567;-68
2022/07/03 03:21:59;;;;;;;1.90;1.80;;;22.10;55.90;;;;;;5054056;28;20198;-68
2022/07/03 03:24:26;;;;;;;3.60;1.90;;;22.10;56.00;;;;;;5054302;28;20624;-68
2022/07/03 03:26:54;;;;;;;1.90;1.80;;;22.10;55.80;;;;;;5069527;28;20199;-68
2022/07/03 03:29:20;;;;;;;2.50;1.80;;;22.10;55.70;;;;;;5052779;28;20222;-68
2022/07/03 03:31:47;;;;;;;1.98;1.80;;;22.20;55.60;;;;;;5052663;28;20206;-68
2022/07/03 03:34:16;;;;;;;2.25;1.88;;;22.20;55.60;;;;;;5069566;28;20195;-68
2022/07/03 03:36:43;;;;;;;2.00;1.85;;;22.20;55.40;;;;;;5052732;28;20199;-68
2022/07/03 03:39:10;;;;;;;2.42;2.13;;;22.30;55.40;;;;;;5052519;28;20245;-68
2022/07/03 03:41:38;;;;;;;3.90;1.80;;;22.30;55.30;;;;;;5053372;28;20204;-67
2022/07/03 03:44:05;;;;;;;1.88;1.77;;;22.40;55.30;;;;;;5052702;28;20215;-66
2022/07/03 03:46:32;;;;;;;3.65;1.95;;;22.40;55.10;;;;;;5053452;28;20205;-68
2022/07/03 03:48:59;;;;;;;1.92;1.83;;;22.40;54.90;;;;;;5053218;28;20204;-69
2022/07/03 03:51:27;;;;;;;2.70;1.75;;;22.50;54.80;;;;;;5069547;28;20195;-67
2022/07/03 03:53:55;;;;;;;2.17;1.98;;;22.50;54.90;;;;;;5069522;28;20222;-68
2022/07/03 03:56:23;;;;;;;2.33;1.92;;;22.50;54.60;;;;;;5052791;28;20200;-68
2022/07/03 03:58:51;;;;;;;2.13;1.92;;;22.50;54.70;;;;;;5052612;28;20199;-68
2022/07/03 04:01:17;;;;;;;1.80;1.70;;;22.50;54.80;;;;;;5052522;28;20294;-68
2022/07/03 04:03:45;;;;;;;2.42;1.80;;;22.50;54.60;;;;;;5052306;28;20211;-68
2022/07/03 04:06:12;;;;;;;2.03;1.83;;;22.50;54.50;;;;;;5053595;28;20222;-68
2022/07/03 04:08:40;;;;;;;2.10;1.77;;;22.50;54.50;;;;;;5053962;28;20675;-68
2022/07/03 04:11:08;;;;;;;2.03;1.80;;;22.50;54.50;;;;;;5052355;28;20215;-68
2022/07/03 04:13:35;;;;;;;1.98;1.80;;;22.50;54.70;;;;;;5052659;28;20219;-68
2022/07/03 04:16:02;;;;;;;2.00;1.90;;;22.50;54.70;;;;;;5052192;28;20234;-68
2022/07/03 04:18:29;;;;;;;2.20;1.90;;;22.60;54.60;;;;;;5068713;28;20667;-68
2022/07/03 04:20:56;;;;;;;3.15;1.95;;;22.60;54.70;;;;;;5068694;28;20205;-68
2022/07/03 04:23:23;;;;;;;2.20;2.00;;;22.60;54.90;;;;;;5068880;28;20226;-68
2022/07/03 04:25:52;;;;;;;3.15;1.90;;;22.60;54.90;;;;;;5052028;28;20210;-68
2022/07/03 04:28:19;;;;;;;1.90;1.80;;;22.60;54.90;;;;;;5053244;28;20221;-68
2022/07/03 04:30:46;;;;;;;2.50;1.80;;;22.60;54.90;;;;;;5051925;28;20276;-67
2022/07/03 04:33:13;;;;;;;2.05;1.95;;;22.60;54.80;;;;;;5053141;28;20222;-68
2022/07/03 04:35:39;;;;;;;1.83;1.73;;;22.60;54.90;;;;;;5051897;28;20209;-69
2022/07/03 04:38:06;;;;;;;2.00;1.75;;;22.70;54.90;;;;;;5051907;28;20199;-68
2022/07/03 04:40:33;;;;;;;2.00;1.88;;;22.70;54.80;;;;;;5051843;28;20192;-68
2022/07/03 04:43:01;;;;;;;2.00;1.90;;;22.70;54.70;;;;;;5052002;28;20730;-68
2022/07/03 04:45:29;;;;;;;2.63;2.00;;;22.80;54.80;;;;;;5055840;28;20585;-68
2022/07/03 04:47:56;;;;;;;2.00;1.90;;;22.90;54.70;;;;;;5072439;28;20257;-68
2022/07/03 04:50:23;;;;;;;1.98;1.88;;;23.00;54.50;;;;;;5072417;28;20264;-68
2022/07/03 04:52:50;;;;;;;1.83;1.73;;;23.20;54.20;;;;;;5055590;28;20272;-68
2022/07/03 04:55:18;;;;;;;2.55;1.90;;;23.40;53.90;;;;;;5055816;28;20245;-68
2022/07/03 04:57:45;;;;;;;1.92;1.83;;;23.60;53.50;;;;;;5055490;28;20207;-68
2022/07/03 05:00:15;;;;;;;2.17;2.08;;;23.80;53.30;;;;;;5055442;28;20192;-68
2022/07/03 05:02:42;;;;;;;2.10;1.90;;;23.90;52.80;;;;;;5055709;28;20695;-68
2022/07/03 05:05:09;;;;;;;2.00;1.70;;;24.10;52.50;;;;;;5055442;28;20207;-68
2022/07/03 05:07:36;;;;;;;2.00;1.90;;;24.30;52.10;;;;;;5055286;28;20203;-69
2022/07/03 05:10:03;;;;;;;1.80;1.70;;;24.40;51.90;;;;;;5056725;28;20210;-68
2022/07/03 05:12:30;;;;;;;2.17;1.98;;;24.50;51.60;;;;;;5055368;28;20223;-68
2022/07/03 05:14:57;;;;;;;2.25;1.98;;;24.70;51.30;;;;;;5055152;28;20570;-68
2022/07/03 05:17:26;;;;;;;2.33;1.98;;;24.70;51.00;;;;;;5055339;28;20200;-68
2022/07/03 05:20:23;;;;;;;1.83;1.70;;;24.90;50.80;;;;;;5055101;28;20286;-68
2022/07/03 05:22:40;;;;;;;1.75;1.65;;;25.00;50.50;;;;;;5071652;28;20306;-68
2022/07/03 05:25:08;;;;;;;1.90;1.70;;;25.10;50.20;;;;;;5056515;28;20183;-68
2022/07/03 05:27:37;;;;;;;2.28;2.08;;;25.20;49.90;;;;;;5055604;28;20195;-69
2022/07/03 05:30:04;;;;;;;2.00;1.80;;;25.30;49.90;;;;;;5056022;28;20607;-68
2022/07/03 05:32:32;;;;;;;2.13;1.90;;;25.40;49.70;;;;;;5055015;28;20222;-68
2022/07/03 05:35:00;;;;;;;1.80;1.70;;;25.50;49.50;;;;;;5054915;28;20315;-68
2022/07/03 05:37:28;;;;;;;2.72;1.95;;;25.60;49.20;;;;;;5054835;28;20199;-68
2022/07/03 05:39:53;;;;;;;2.38;1.90;;;25.70;49.10;;;;;;5055065;28;20183;-68
2022/07/03 05:42:21;;;;;;;1.90;1.77;;;25.80;48.90;;;;;;5054929;28;20211;-68
2022/07/03 05:44:48;;;;;;;2.15;1.83;;;25.90;48.70;;;;;;5072257;28;20195;-68
2022/07/03 05:47:15;;;;;;;2.35;1.80;;;25.90;48.50;;;;;;5072140;28;20199;-68
2022/07/03 05:49:43;;;;;;;1.98;1.80;;;26.00;48.30;;;;;;5054577;28;20210;-68
2022/07/03 05:52:10;;;;;;;1.77;1.67;;;26.10;48.20;;;;;;5054876;28;20215;-68
2022/07/03 05:54:37;;;;;;;2.95;1.98;;;26.10;48.10;;;;;;5070530;28;20268;-68
2022/07/03 05:57:05;;;;;;;2.00;1.75;;;26.20;47.90;;;;;;5054714;28;20231;-68
2022/07/03 05:59:32;;;;;;;1.85;1.60;;;26.30;47.80;;;;;;5054564;28;20622;-67
2022/07/03 06:02:00;;;;;;;2.40;1.90;;;26.30;47.60;;;;;;5054625;28;20345;-68
2022/07/03 06:04:27;;;;;;;1.80;1.70;;;26.40;47.50;;;;;;5054630;28;20671;-68
2022/07/03 06:06:55;;;;;;;2.17;1.70;;;26.40;47.30;;;;;;5070970;28;20199;-68
2022/07/03 06:09:22;;;;;;;1.70;1.60;;;26.50;47.20;;;;;;5054593;28;20196;-68
2022/07/03 06:11:49;;;;;;;2.88;1.60;;;26.60;47.00;;;;;;5054244;28;20597;-68
2022/07/03 06:14:17;;;;;;;1.80;1.70;;;26.60;46.80;;;;;;5054425;28;20231;-68
2022/07/03 06:16:44;;;;;;;1.83;1.70;;;26.70;46.70;;;;;;5070724;28;20195;-68
2022/07/03 06:19:11;;;;;;;1.80;1.70;;;26.80;46.60;;;;;;5054186;28;20240;-67
2022/07/03 06:21:38;;;;;;;1.80;1.70;;;26.80;46.40;;;;;;5071022;28;20198;-68
2022/07/03 06:24:07;;;;;;;2.03;1.73;;;26.90;46.40;;;;;;5055306;28;20203;-70
2022/07/03 06:26:34;;;;;;;2.20;1.67;;;26.90;46.20;;;;;;5055089;28;20192;-68
2022/07/03 06:29:01;;;;;;;1.77;1.67;;;27.00;46.70;;;;;;5054022;28;20278;-68
2022/07/03 06:31:28;;;;;;;1.80;1.70;;;27.00;46.00;;;;;;5070787;28;20222;-68
2022/07/03 06:33:55;;;;;;;1.70;1.60;;;27.10;45.90;;;;;;5070695;28;20656;-68
2022/07/03 06:36:22;;;;;;;1.98;1.77;;;27.10;45.80;;;;;;5053827;28;20253;-68
2022/07/03 06:38:49;;;;;;;1.48;1.38;;;27.20;46.30;;;;;;5070717;28;20249;-68
2022/07/03 06:41:18;;;;;;;2.15;1.60;;;27.20;45.60;;;;;;5053930;28;20286;-68
2022/07/03 06:43:45;;;;;;;1.55;1.48;;;27.30;45.50;;;;;;5054260;28;20219;-68
2022/07/03 06:46:11;;;;;;;1.70;1.60;;;27.30;45.40;;;;;;5053726;28;20294;-68
2022/07/03 06:48:39;;;;;;;1.73;1.63;;;27.40;45.30;;;;;;5054094;28;20286;-68
2022/07/03 06:51:06;;;;;;;1.77;1.58;;;27.40;45.20;;;;;;5055591;28;20211;-68
2022/07/03 06:53:33;;;;;;;1.70;1.60;;;27.50;45.20;;;;;;5053736;28;20649;-67
2022/07/03 06:56:00;;;;;;;1.70;1.60;;;27.50;45.00;;;;;;5054039;28;20207;-68
2022/07/03 06:58:28;;;;;;;1.55;1.45;;;27.60;45.00;;;;;;5053966;28;20243;-68
2022/07/03 07:00:55;;;;;;;1.80;1.70;;;27.60;44.80;;;;;;5054693;28;20604;-68
2022/07/03 07:03:22;;;;;;;1.42;1.33;;;27.70;44.80;;;;;;5053427;28;20303;-68
2022/07/03 07:05:49;;;;;;;1.80;1.70;;;27.70;44.60;;;;;;5053220;28;20725;-68
2022/07/03 07:08:17;;;;;;;1.80;1.70;;;27.80;44.60;;;;;;5054732;28;20224;-68
2022/07/03 07:10:44;;;;;;;1.70;1.60;;;27.80;44.50;;;;;;5053647;28;20237;-68
2022/07/03 07:13:11;;;;;;;2.00;1.60;;;27.90;44.40;;;;;;5070038;28;20218;-67
2022/07/03 07:15:39;;;;;;;1.80;1.70;;;27.90;44.30;;;;;;5054557;28;20266;-68
2022/07/03 07:18:08;;;;;;;1.60;1.50;;;28.00;44.20;;;;;;5053331;28;20194;-67
2022/07/03 07:20:35;;;;;;;1.70;1.60;;;28.00;44.20;;;;;;5070058;28;20195;-68
2022/07/03 07:23:02;;;;;;;1.65;1.55;;;28.00;44.10;;;;;;5058049;28;20681;-68
2022/07/03 07:25:30;;;;;;;1.40;1.30;;;28.00;44.00;;;;;;5055212;28;20302;-68
2022/07/03 07:27:57;;;;;;;1.67;1.58;;;28.10;44.00;;;;;;5054116;28;20245;-68
2022/07/03 07:30:24;;;;;;;1.60;1.50;;;28.10;44.00;;;;;;5054588;28;20210;-68
2022/07/03 07:32:52;;;;;;;1.40;1.30;;;28.10;44.00;;;;;;5053387;28;20228;-68
2022/07/03 07:35:19;;;;;;;1.60;1.50;;;28.10;43.90;;;;;;5053381;28;20257;-68
2022/07/03 07:37:48;;;;;;;1.40;1.30;;;28.20;43.80;;;;;;5054264;28;20190;-68
2022/07/03 07:40:15;;;;;;;1.80;1.70;;;28.20;43.80;;;;;;5053209;28;20206;-68
2022/07/03 07:42:42;;;;;;;1.45;1.35;;;28.20;43.70;;;;;;5053124;28;20522;-68
2022/07/03 07:45:10;;;;;;;1.65;1.55;;;28.20;43.70;;;;;;5053016;28;20198;-68
2022/07/03 07:47:37;;;;;;;1.63;1.52;;;28.20;43.70;;;;;;5053283;28;20195;-68
2022/07/03 07:50:07;;;;;;;1.52;1.42;;;28.20;43.70;;;;;;5053129;28;20202;-68
2022/07/03 07:52:34;;;;;;;1.60;1.50;;;28.20;43.80;;;;;;5054708;28;20219;-68
2022/07/03 07:55:01;;;;;;;1.65;1.55;;;28.20;43.80;;;;;;5057511;28;20282;-68
2022/07/03 07:57:34;;;;;;;1.40;1.30;;;28.20;43.70;;;;;;5054900;28;20182;-67
2022/07/03 08:00:06;;;;;;;1.60;1.50;;;28.20;43.80;;;;;;5053359;28;20286;-68
2022/07/03 08:05:37;;;;;;;1.60;1.50;;;28.10;43.80;;;;;;5077013;28;20229;-69
2022/07/03 08:08:08;;;;;;;2.78;1.30;;;28.10;43.90;;;;;;5056172;28;20268;-67
2022/07/03 08:10:36;;;;;;;2.00;1.30;;;28.00;43.50;;;;;;5061924;28;20177;-69
2022/07/03 08:13:03;;;;;;;1.80;1.50;;;28.10;43.80;;;;;;5058498;28;20215;-69
2022/07/03 08:15:30;;;;;;;1.52;1.20;;;28.10;43.50;;;;;;5059272;28;20212;-69
2022/07/03 08:17:58;;;;;;;1.20;1.10;;;28.20;43.80;;;;;;5053582;28;20194;-69
2022/07/03 08:20:26;;;;;;;1.30;1.20;;;28.10;43.10;;;;;;5055393;28;20191;-69
2022/07/03 08:22:53;;;;;;;3.90;1.20;;;28.10;42.50;;;;;;5070329;28;20221;-68
2022/07/03 08:25:21;;;;;;;1.95;0.93;;;28.10;42.80;;;;;;5053432;28;20203;-67
2022/07/03 08:27:48;;;;;;;0.90;0.90;;;28.10;42.50;;;;;;5069291;28;20206;-68
2022/07/03 08:30:17;;;;;;;1.10;1.00;;;28.10;42.20;;;;;;5052837;28;20203;-69
2022/07/03 08:32:45;;;;;;;3.15;1.00;;;28.10;41.20;;;;;;5052541;28;20222;-69
2022/07/03 08:35:12;;;;;;;2.03;1.05;;;28.20;41.60;;;;;;5052268;28;20202;-68
2022/07/03 08:37:42;;;;;;;1.15;0.98;;;28.10;41.70;;;;;;5068996;28;20614;-68
2022/07/03 08:40:10;;;;;;;2.33;1.00;;;28.10;42.30;;;;;;5052443;28;20647;-68
2022/07/03 08:42:38;;;;;;;1.30;0.90;;;28.10;41.60;;;;;;5052324;28;20272;-68
2022/07/03 08:45:07;;;;;;;1.58;1.05;;;28.10;41.80;;;;;;5052508;28;20190;-68
2022/07/03 08:47:34;;;;;;;1.83;0.98;;;28.10;41.90;;;;;;5053206;28;20190;-68
2022/07/03 08:50:01;;;;;;;1.58;0.98;;;28.10;39.80;;;;;;5068898;28;20202;-68
2022/07/03 08:52:29;;;;;;;1.27;1.10;;;28.10;39.70;;;;;;5053411;28;20214;-68
2022/07/03 08:54:57;;;;;;;1.45;1.27;;;28.10;40.40;;;;;;5052795;28;20639;-69
2022/07/03 08:57:24;;;;;;;1.73;1.00;;;28.10;40.80;;;;;;5052374;28;20206;-69
2022/07/03 08:59:53;;;;;;;1.15;1.10;;;28.20;40.80;;;;;;5052795;28;20257;-68
2022/07/03 09:02:21;;;;;;;1.17;1.08;;;28.10;41.20;;;;;;5052738;28;20727;-65
2022/07/03 09:04:48;;;;;;;2.15;0.95;;;28.20;41.20;;;;;;5054266;28;20195;-66
2022/07/03 09:07:15;;;;;;;0.90;0.90;;;28.30;41.20;;;;;;5052050;28;20595;-66
2022/07/03 09:09:42;;;;;;;2.30;1.20;;;28.30;39.90;;;;;;5053301;28;20194;-65
2022/07/03 09:12:11;;;;;;;2.33;1.02;;;28.30;40.50;;;;;;5052021;28;20229;-65
2022/07/03 09:14:38;;;;;;;1.17;1.08;;;28.20;39.40;;;;;;5052114;28;20218;-66
2022/07/03 09:17:07;;;;;;;0.85;0.85;;;28.40;40.00;;;;;;5052405;28;20225;-66
2022/07/03 09:19:43;;;;;;;1.00;0.93;;;28.40;40.20;;;;;;5053300;28;20198;-66
2022/07/03 09:22:21;;;;;;;2.65;1.10;;;28.40;40.00;;;;;;5068549;28;20671;-66
2022/07/03 09:24:49;;;;;;;1.55;0.90;;;28.40;40.30;;;;;;5068813;28;20253;-66
2022/07/03 09:27:19;;;;;;;1.80;0.85;;;28.40;41.00;;;;;;5052977;28;20195;-66
2022/07/03 09:29:58;;;;;;;0.70;0.70;;;28.40;40.60;;;;;;5053639;28;20199;-65
2022/07/03 09:32:24;;;;;;;0.93;0.93;;;28.40;40.00;;;;;;5072964;28;20651;-65
2022/07/03 09:35:03;;;;;;;1.25;1.00;;;28.30;41.00;;;;;;5055605;28;20202;-66
2022/07/03 09:37:33;;;;;;;1.20;1.10;;;28.20;40.90;;;;;;5055584;28;20183;-65
2022/07/03 09:40:00;;;;;;;0.90;0.90;;;28.30;39.40;;;;;;5055173;28;20656;-65
2022/07/03 09:42:28;;;;;;;1.70;1.02;;;28.30;39.30;;;;;;5057031;28;20202;-66
2022/07/03 09:44:55;;;;;;;0.85;0.85;;;28.30;39.40;;;;;;5055434;28;20647;-66
2022/07/03 09:47:23;;;;;;;1.27;0.98;;;28.20;39.30;;;;;;5055214;28;20577;-66
2022/07/03 09:49:53;;;;;;;1.23;1.10;;;28.30;40.00;;;;;;5072578;28;20199;-64
2022/07/03 09:52:37;;;;;;;0.90;0.90;;;28.30;39.60;;;;;;5071739;28;20230;-66
2022/07/03 09:55:14;;;;;;;3.10;0.88;;;28.30;40.00;;;;;;5056582;28;20175;-67
2022/07/03 09:57:44;;;;;;;1.00;1.00;;;28.30;39.60;;;;;;5056888;28;20646;-67
2022/07/03 10:00:12;;;;;;;1.67;1.00;;;28.30;39.60;;;;;;5072310;28;20201;-67
2022/07/03 10:02:59;;;;;;;3.28;1.17;;;28.30;38.50;;;;;;5055071;28;20215;-67
2022/07/03 10:05:27;;;;;;;1.27;0.90;;;28.30;39.80;;;;;;5055295;28;20290;-68
2022/07/03 10:07:55;;;;;;;1.23;1.08;;;28.30;39.80;;;;;;5057452;28;20199;-68
2022/07/03 10:10:23;;;;;;;0.93;0.93;;;28.30;40.00;;;;;;5058137;28;20273;-67
2022/07/03 10:12:52;;;;;;;1.52;1.02;;;28.30;40.60;;;;;;5059400;28;20226;-66
2022/07/03 10:15:19;;;;;;;1.75;0.98;;;28.20;41.10;;;;;;5057625;28;20198;-67
2022/07/03 10:17:48;;;;;;;3.45;1.20;;;28.10;41.50;;;;;;5058942;28;20190;-67
2022/07/03 10:20:15;;;;;;;2.17;1.20;;;28.10;41.60;;;;;;5058815;28;20217;-68
2022/07/03 10:22:43;;;;;;;1.35;1.13;;;28.00;41.80;;;;;;5075873;28;20314;-68
2022/07/03 10:25:10;;;;;;;1.42;0.90;;;28.10;42.30;;;;;;5058912;28;20244;-67
2022/07/03 10:27:37;;;;;;;1.05;1.00;;;27.90;42.40;;;;;;5058155;28;20210;-67
2022/07/03 10:30:07;;;;;;;1.02;1.00;;;27.90;42.40;;;;;;5055305;28;20294;-67
2022/07/03 10:32:34;;;;;;;1.88;0.90;;;27.90;42.40;;;;;;5055993;28;20306;-67
2022/07/03 10:35:01;;;;;;;1.77;1.10;;;27.90;42.70;;;;;;5057861;28;20237;-67
2022/07/03 10:37:31;;;;;;;3.33;0.93;;;27.90;42.40;;;;;;5055559;28;20222;-67
2022/07/03 10:44:45;;;;;;;1.63;1.05;;;28.00;42.60;;;;;;5068993;28;20202;-67
2022/07/03 10:45:35;;;;;;;1.02;0.93;;;28.10;42.80;;;;;;5057793;28;20201;-67
2022/07/03 10:48:02;;;;;;;1.10;1.00;;;28.10;42.00;;;;;;5054519;28;20202;-67
2022/07/03 10:50:29;;;;;;;1.38;1.00;;;28.10;42.10;;;;;;5054496;28;20203;-66
2022/07/03 10:52:56;;;;;;;1.65;1.00;;;28.10;42.20;;;;;;5055222;28;20230;-66
2022/07/03 10:55:23;;;;;;;0.85;0.80;;;28.10;42.50;;;;;;5067006;28;20201;-67
2022/07/03 10:58:07;;;;;;;1.55;0.90;;;28.00;42.30;;;;;;5055323;28;20199;-67
2022/07/03 11:00:54;;;;;;;2.15;1.05;;;28.00;42.30;;;;;;5054684;28;20175;-66
2022/07/03 11:03:52;;;;;;;1.77;1.00;;;28.00;42.40;;;;;;5070155;28;20707;-67
2022/07/03 11:06:19;;;;;;;0.98;0.90;;;28.10;42.50;;;;;;5070082;28;20205;-67
2022/07/03 11:09:05;;;;;;;0.80;0.80;;;28.10;42.10;;;;;;5053218;28;20203;-67
2022/07/03 11:14:20;;;;;;;1.10;1.00;;;28.00;42.00;;;;;;5053324;28;20195;-66
2022/07/03 11:16:48;;;;;;;1.00;1.00;;;28.00;42.20;;;;;;5053123;28;20282;-67
2022/07/03 11:19:15;;;;;;;1.20;1.00;;;28.00;42.30;;;;;;5053977;28;20290;-66
2022/07/03 11:21:44;;;;;;;1.10;0.90;;;28.00;42.40;;;;;;5055409;28;20183;-67
2022/07/03 11:24:42;;;;;;;1.92;0.90;;;28.00;42.40;;;;;;5054494;28;20187;-67
2022/07/03 11:27:20;;;;;;;0.95;0.95;;;28.00;42.50;;;;;;4992995;28;20204;-65
2022/07/03 11:29:51;;;;;;;0.93;0.90;;;28.00;42.50;;;;;;5045738;28;20206;-67
2022/07/03 11:32:50;;;;;;;0.90;0.90;;;28.00;42.60;;;;;;5054357;28;20249;-66
2022/07/03 11:35:55;;;;;;;0.90;0.90;;;27.90;42.40;;;;;;5052987;28;20205;-66
2022/07/03 11:38:28;;;;;;;1.83;1.25;;;27.90;42.40;;;;;;5069497;28;20209;-66
2022/07/03 11:40:56;;;;;;;1.20;1.10;;;27.90;42.40;;;;;;5052890;28;20206;-66
2022/07/03 11:43:23;;;;;;;1.02;1.02;;;27.90;42.40;;;;;;5069527;28;20221;-65
2022/07/03 11:45:50;;;;;;;1.10;1.10;;;27.90;43.00;;;;;;5053197;28;20195;-66
2022/07/03 11:48:18;;;;;;;1.27;1.00;;;27.90;42.40;;;;;;5054161;28;20574;-66
2022/07/03 11:50:46;;;;;;;1.30;1.20;;;27.90;42.40;;;;;;5053078;28;20730;-67
2022/07/03 11:53:26;;;;;;;0.90;0.90;;;27.90;42.70;;;;;;5068693;28;20230;-67
2022/07/03 11:55:58;;;;;;;1.10;1.00;;;27.90;43.50;;;;;;5052766;28;20195;-68
2022/07/03 11:58:26;;;;;;;1.00;0.90;;;27.80;43.00;;;;;;5053259;28;20190;-68
2022/07/03 12:00:54;;;;;;;1.90;0.93;;;27.80;43.20;;;;;;5067636;23;20329;-68
2022/07/03 12:03:26;;;;;;;3.80;1.20;;;27.80;43.20;;;;;;5053608;28;20195;-69
2022/07/03 12:05:55;;;;;;;1.85;1.10;;;27.80;42.90;;;;;;5052691;28;20256;-68
2022/07/03 12:08:27;;;;;;;2.95;1.20;;;27.80;43.10;;;;;;5053528;28;20558;-68
2022/07/03 12:11:00;;;;;;;1.38;1.27;;;27.70;43.20;;;;;;5052328;28;20248;-68
2022/07/03 12:13:29;;;;;;;1.77;1.10;;;27.70;43.40;;;;;;5071679;22;20233;-73
2022/07/03 12:16:08;;;;;;;2.13;1.30;;;27.70;43.50;;;;;;5181850;22;20226;-74
2022/07/03 12:18:48;;;;;;;2.08;1.17;;;27.70;43.60;;;;;;5199304;22;20597;-73
2022/07/03 12:21:15;;;;;;;2.97;1.35;;;27.60;44.10;;;;;;5052295;28;20222;-73
2022/07/03 12:29:03;;;;;;;1.63;1.20;;;27.70;44.60;;;;;;5196726;22;21138;-72
2022/07/03 12:31:30;;;;;;;1.65;1.15;;;27.70;44.90;;;;;;5051757;28;20214;-73
2022/07/03 12:33:58;;;;;;;2.10;1.25;;;27.60;44.90;;;;;;5051836;28;20218;-74
2022/07/03 12:36:26;;;;;;;1.30;1.20;;;27.60;45.10;;;;;;5051830;28;20686;-73
2022/07/03 12:38:53;;;;;;;1.77;1.20;;;27.60;45.00;;;;;;5068526;28;20269;-73
2022/07/03 12:41:20;;;;;;;1.10;1.10;;;27.50;45.00;;;;;;5068274;28;20302;-74
2022/07/03 12:43:48;;;;;;;1.25;1.15;;;27.50;45.00;;;;;;5051686;28;20198;-73
2022/07/03 12:46:19;;;;;;;1.52;1.20;;;27.50;45.10;;;;;;5052945;28;20297;-73
2022/07/03 12:48:48;;;;;;;1.30;1.10;;;27.50;45.20;;;;;;5052956;28;20279;-73
2022/07/03 12:51:16;;;;;;;1.90;1.27;;;27.50;45.20;;;;;;5051545;28;20215;-74
2022/07/03 12:53:43;;;;;;;2.35;1.20;;;27.40;45.20;;;;;;5051855;28;20222;-73
2022/07/03 12:56:11;;;;;;;2.05;1.30;;;27.40;45.20;;;;;;5068622;28;20245;-73
2022/07/03 13:01:26;;;;;;;1.90;1.40;;;27.40;45.40;;;;;;5051804;28;20276;-73
2022/07/03 13:03:53;;;;;;;1.45;1.17;;;27.40;45.50;;;;;;5052834;28;20183;-74
2022/07/03 13:06:23;;;;;;;1.30;1.20;;;27.40;45.50;;;;;;5055455;28;20199;-74
2022/07/03 13:08:54;;;;;;;1.40;1.30;;;27.40;45.60;;;;;;5055721;28;20298;-74
2022/07/03 13:11:29;;;;;;;2.42;1.20;;;27.40;45.70;;;;;;5056453;28;20210;-74
2022/07/03 13:14:05;;;;;;;2.55;1.45;;;27.30;45.70;;;;;;5071824;28;20610;-74
2022/07/03 13:16:40;;;;;;;2.13;1.25;;;27.30;45.80;;;;;;5071919;28;20194;-73
2022/07/03 13:19:08;;;;;;;1.60;1.30;;;27.30;45.80;;;;;;5055542;28;20201;-74